TimeMST,TemperatureF,Dew PointF,Humidity,Sea Level PressureIn,VisibilityMPH,Wind Direction,Wind SpeedMPH,Gust SpeedMPH,PrecipitationIn,Events,Conditions,WindDirDegrees,DateUTC
12:58 AM,8.2,2.8,79,30.57,10.0,ESE,9.2,-,N/A,,Clear,110,2013-01-03 07:58:00
1:58 AM,8.1,2.7,79,30.56,10.0,ESE,9.2,-,N/A,,Partly Cloudy,110,2013-01-03 08:58:00
2:18 AM,8.6,3.2,79,30.39,10.0,ESE,8.1,-,N/A,,Mostly Cloudy,110,2013-01-03 09:18:00
2:23 AM,8.6,3.2,79,30.40,10.0,ESE,8.1,-,N/A,,Scattered Clouds,110,2013-01-03 09:23:00
2:43 AM,10.4,3.2,73,30.40,10.0,ESE,9.2,-,N/A,,Mostly Cloudy,120,2013-01-03 09:43:00
2:58 AM,8.6,3.2,79,30.57,10.0,ESE,8.1,-,N/A,,Scattered Clouds,120,2013-01-03 09:58:00
3:37 AM,6.8,1.4,79,30.39,9.0,SSE,5.8,-,N/A,,Partly Cloudy,150,2013-01-03 10:37:00
3:42 AM,6.8,1.4,79,30.39,4.0,SSE,4.6,-,N/A,,Haze,160,2013-01-03 10:42:00
3:47 AM,6.8,3.2,85,30.39,1.8,ESE,4.6,-,N/A,,Haze,110,2013-01-03 10:47:00
3:52 AM,6.8,3.2,85,30.39,1.8,ESE,8.1,-,N/A,,Haze,110,2013-01-03 10:52:00
3:57 AM,6.8,3.2,85,30.40,3.0,ESE,8.1,-,N/A,,Haze,110,2013-01-03 10:57:00
3:58 AM,7.2,3.0,83,30.58,3.0,ESE,8.1,-,N/A,,Haze,110,2013-01-03 10:58:00
4:03 AM,6.8,3.2,85,30.40,5.0,ESE,9.2,-,N/A,,Haze,110,2013-01-03 11:03:00
4:08 AM,8.6,3.2,79,30.40,7.0,SE,5.8,-,N/A,,Overcast,130,2013-01-03 11:08:00
4:15 AM,8.6,3.2,79,30.40,5.0,ESE,6.9,-,N/A,Snow,Light Snow,110,2013-01-03 11:15:00
4:20 AM,6.8,3.2,85,30.40,3.0,ESE,6.9,-,N/A,Snow,Light Snow,120,2013-01-03 11:20:00
4:30 AM,6.8,3.2,85,30.40,5.0,ESE,8.1,-,N/A,Snow,Light Snow,110,2013-01-03 11:30:00
4:35 AM,6.8,3.2,85,30.40,6.0,ESE,8.1,-,N/A,Snow,Light Snow,110,2013-01-03 11:35:00
4:45 AM,6.8,1.4,79,30.39,4.0,ESE,8.1,-,N/A,Snow,Light Snow,110,2013-01-03 11:45:00
4:50 AM,6.8,1.4,79,30.40,5.0,ESE,9.2,-,N/A,Snow,Light Snow,110,2013-01-03 11:50:00
4:58 AM,6.3,1.9,82,30.57,5.0,ESE,9.2,-,0.00,Snow,Light Snow,110,2013-01-03 11:58:00
5:09 AM,6.8,1.4,79,30.39,8.0,ESE,11.5,-,N/A,,Overcast,110,2013-01-03 12:09:00
5:29 AM,5.0,-0.4,78,30.39,10.0,East,10.4,-,N/A,,Mostly Cloudy,100,2013-01-03 12:29:00
5:34 AM,5.0,-0.4,78,30.39,10.0,ESE,10.4,-,N/A,,Scattered Clouds,110,2013-01-03 12:34:00
5:58 AM,6.3,0.7,78,30.59,10.0,East,12.7,-,0.00,,Clear,100,2013-01-03 12:58:00
6:58 AM,5.9,-0.6,75,30.61,10.0,ESE,13.8,-,N/A,,Clear,110,2013-01-03 13:58:00
7:58 AM,5.0,-1.3,75,30.62,10.0,ESE,12.7,-,N/A,,Partly Cloudy,110,2013-01-03 14:58:00
8:58 AM,6.8,-0.4,72,30.63,10.0,ESE,15.0,-,N/A,,Partly Cloudy,110,2013-01-03 15:58:00
9:58 AM,10.2,0.7,65,30.63,10.0,East,11.5,-,N/A,,Partly Cloudy,100,2013-01-03 16:58:00
10:58 AM,12.2,2.3,65,30.64,10.0,ESE,9.2,-,N/A,,Partly Cloudy,110,2013-01-03 17:58:00
11:58 AM,16.5,4.1,58,30.61,10.0,Variable,1.2,-,N/A,,Partly Cloudy,0,2013-01-03 18:58:00
12:58 PM,16.7,7.3,67,30.57,10.0,NW,6.9,-,N/A,,Clear,320,2013-01-03 19:58:00
1:58 PM,16.7,8.4,70,30.56,10.0,NNW,4.6,-,N/A,,Clear,330,2013-01-03 20:58:00
2:58 PM,17.6,9.5,71,30.56,10.0,NW,6.9,-,N/A,,Clear,320,2013-01-03 21:58:00
3:58 PM,15.6,8.1,72,30.58,10.0,WNW,4.6,-,N/A,,Clear,300,2013-01-03 22:58:00
4:58 PM,12.9,6.8,77,30.60,10.0,NW,4.6,-,N/A,,Clear,320,2013-01-03 23:58:00
5:58 PM,11.8,7.0,81,30.61,10.0,NNW,3.5,-,N/A,,Clear,340,2013-01-04 00:58:00
6:58 PM,11.1,6.6,82,30.62,9.0,North,1.2,-,N/A,,Clear,360,2013-01-04 01:58:00
7:58 PM,9.5,6.3,87,30.63,8.0,Calm,Calm,-,N/A,,Clear,0,2013-01-04 02:58:00
8:58 PM,9.9,6.4,86,30.61,8.0,Calm,Calm,-,N/A,,Clear,0,2013-01-04 03:58:00
9:58 PM,9.1,4.5,81,30.60,10.0,ESE,4.6,-,N/A,,Clear,110,2013-01-04 04:58:00
10:53 PM,8.6,3.2,79,30.40,10.0,East,5.8,-,N/A,,Mostly Cloudy,100,2013-01-04 05:53:00
10:58 PM,8.6,3.4,79,30.60,10.0,East,5.8,-,N/A,,Mostly Cloudy,90,2013-01-04 05:58:00
11:23 PM,10.4,5.0,79,30.41,10.0,East,5.8,-,N/A,,Overcast,100,2013-01-04 06:23:00
11:24 PM,10.4,5.0,79,30.41,9.0,East,5.8,-,N/A,,Overcast,100,2013-01-04 06:24:00
11:27 PM,10.4,5.0,79,30.40,7.0,East,6.9,-,N/A,Snow,Light Snow,100,2013-01-04 06:27:00
11:52 PM,10.4,5.0,79,30.40,4.0,East,5.8,-,N/A,Snow,Light Snow,100,2013-01-04 06:52:00
11:58 PM,10.0,4.8,79,30.57,3.0,ESE,6.9,-,0.00,Snow,Light Snow,110,2013-01-04 06:58:00